Time;durP1;ratioP1;P1;durP2;ratioP2;P2;SDS_P1;SDS_P2;PMS_P1;PMS_P2;Temp;Humidity;BMP_temperature;BMP_pressure;BME280_temperature;BME280_humidity;BME280_pressure;Samples;Min_cycle;Max_cycle;Signal;HPM_P1;HPM_P2
2022/03/20 00:00:24;;;;;;;6.57;5.10;;;;;;;3.35;39.60;96613.97;4971449;28;20203;-80
2022/03/20 00:03:37;;;;;;;8.60;5.00;;;;;;;3.31;39.75;96614.13;5031639;28;20659;-78
2022/03/20 00:06:34;;;;;;;6.87;5.47;;;;;;;2.90;39.61;96547.94;4875620;29;20201;-78
2022/03/20 00:09:23;;;;;;;6.33;5.40;;;;;;;3.48;39.90;96639.72;4857230;29;20221;-77
2022/03/20 00:11:58;;;;;;;7.10;5.30;;;;;;;2.98;39.70;96571.28;4828134;29;20208;-78
2022/03/20 00:14:37;;;;;;;6.37;5.03;;;;;;;3.13;39.33;96587.69;4855847;29;20257;-74
2022/03/20 00:17:23;;;;;;;6.53;5.20;;;;;;;3.45;39.62;96654.97;4856987;29;20212;-75
2022/03/20 00:20:20;;;;;;;6.03;4.90;;;;;;;3.33;39.42;96638.50;4856681;29;20198;-77
2022/03/20 00:23:09;;;;;;;;;;;;;;;;;;;;;
2022/03/20 00:25:47;;;;;;;6.40;4.73;;;;;;;3.30;39.60;96631.00;4856838;29;20216;-75
2022/03/20 00:28:17;;;;;;;7.53;4.77;;;;;;;3.27;39.35;96631.06;4873216;29;20218;-76
2022/03/20 00:30:59;;;;;;;;;;;;;;;;;;;;;
2022/03/20 00:34:01;;;;;;;;;;;;;;;;;;;;;
2022/03/20 00:37:11;;;;;;;5.17;4.60;;;;;;;3.06;39.61;96609.78;4911041;29;20245;-76
2022/03/20 00:39:58;;;;;;;6.07;4.70;;;;;;;2.97;39.56;96582.25;4836286;29;20198;-77
2022/03/20 00:42:26;;;;;;;6.03;4.73;;;;;;;3.36;39.38;96645.16;4863904;29;20214;-75
2022/03/20 00:44:54;;;;;;;7.63;4.80;;;;;;;3.43;39.79;96649.16;4875005;29;20279;-77
2022/03/20 00:47:23;;;;;;;7.37;4.67;;;;;;;3.44;39.55;96651.63;4873724;29;20189;-74
2022/03/20 00:49:52;;;;;;;6.53;5.40;;;;;;;3.42;39.49;96647.50;4874882;29;20213;-76
2022/03/20 00:52:19;;;;;;;5.30;4.80;;;;;;;3.43;39.47;96649.97;4875464;29;20287;-77
2022/03/20 00:54:48;;;;;;;5.37;4.27;;;;;;;3.38;39.64;96641.72;4874528;29;20197;-77
2022/03/20 00:57:19;;;;;;;6.77;4.67;;;;;;;3.43;39.58;96634.81;4874118;29;20201;-77
2022/03/20 00:59:45;;;;;;;9.63;4.57;;;;;;;3.45;39.44;96632.22;4874598;29;20204;-77
2022/03/20 01:02:15;;;;;;;5.37;4.70;;;;;;;3.29;39.83;96613.34;4880384;29;20757;-77
2022/03/20 01:04:42;;;;;;;5.60;4.40;;;;;;;3.41;39.50;96641.63;4912045;29;20203;-77
2022/03/20 01:07:09;;;;;;;6.93;4.53;;;;;;;3.16;39.77;96597.72;4943343;29;20193;-75
2022/03/20 01:09:36;;;;;;;7.07;5.07;;;;;;;3.35;39.75;96625.78;4975601;28;20226;-75
2022/03/20 01:12:05;;;;;;;8.10;5.43;;;;;;;3.33;39.62;96617.44;5029797;28;20270;-78
2022/03/20 01:14:34;;;;;;;7.07;5.07;;;;;;;3.42;39.79;96638.22;5029591;28;20194;-75
2022/03/20 01:17:01;;;;;;;6.53;5.23;;;;;;;3.13;39.73;96592.75;5035479;28;20183;-76
2022/03/20 01:19:31;;;;;;;5.37;4.30;;;;;;;3.23;39.72;96607.56;5050704;28;20194;-75
2022/03/20 01:21:59;;;;;;;7.40;4.93;;;;;;;3.32;39.95;96619.13;5049772;28;20233;-76
2022/03/20 01:24:28;;;;;;;6.30;4.63;;;;;;;3.35;39.76;96626.63;5050155;28;20669;-76
2022/03/20 01:26:55;;;;;;;11.37;4.37;;;;;;;3.37;39.60;96626.56;5038743;28;20214;-76
2022/03/20 01:29:22;;;;;;;6.17;5.10;;;;;;;3.34;39.89;96619.09;5030492;28;20192;-78
2022/03/20 01:31:50;;;;;;;5.13;4.33;;;;;;;3.38;39.72;96634.13;5030416;28;20200;-78
2022/03/20 01:34:17;;;;;;;5.80;4.97;;;;;;;3.40;40.00;96631.53;5044123;28;20191;-76
2022/03/20 01:36:46;;;;;;;5.50;5.00;;;;;;;3.34;39.86;96624.97;5049258;28;20709;-76
2022/03/20 01:39:15;;;;;;;7.33;5.10;;;;;;;3.38;39.87;96636.66;5049365;28;20195;-76
2022/03/20 01:41:43;;;;;;;6.90;4.87;;;;;;;3.22;39.83;96608.47;5038884;28;20223;-76
2022/03/20 01:44:10;;;;;;;7.70;5.50;;;;;;;3.39;40.06;96642.53;5030309;28;20251;-74
2022/03/20 01:46:37;;;;;;;8.97;5.63;;;;;;;3.37;40.10;96645.13;5030331;28;20200;-76
2022/03/20 01:49:05;;;;;;;8.07;6.70;;;;;;;3.35;40.21;96639.25;5033430;28;20661;-77
2022/03/20 01:54:17;;;;;;;11.67;7.50;;;;;;;3.31;40.44;96640.22;5051180;28;20241;-76
2022/03/20 01:56:46;;;;;;;10.67;7.07;;;;;;;3.32;40.49;96653.69;5051599;28;20737;-75
2022/03/20 01:59:12;;;;;;;11.07;7.13;;;;;;;3.27;40.47;96644.53;5049893;28;20191;-76
2022/03/20 02:01:39;;;;;;;13.53;8.17;;;;;;;3.29;40.91;96654.63;5049195;28;20237;-74
2022/03/20 02:04:08;;;;;;;10.03;7.93;;;;;;;3.28;40.81;96658.00;5048274;28;20573;-76
2022/03/20 02:06:35;;;;;;;13.27;8.37;;;;;;;3.27;40.88;96656.34;5034007;28;20202;-74
2022/03/20 02:09:02;;;;;;;11.30;8.03;;;;;;;3.14;40.92;96639.88;5034743;28;20857;-76
2022/03/20 02:11:30;;;;;;;11.43;8.00;;;;;;;3.24;41.10;96653.94;5049490;28;20187;-78
2022/03/20 02:13:59;;;;;;;13.13;7.93;;;;;;;3.21;41.45;96644.72;5049867;28;20195;-76
2022/03/20 02:16:25;;;;;;;12.40;8.07;;;;;;;3.20;41.18;96647.31;5049457;28;20670;-74
2022/03/20 02:18:54;;;;;;;12.33;8.10;;;;;;;3.19;41.31;96648.16;5049717;28;20187;-75
2022/03/20 02:24:40;;;;;;;11.20;7.53;;;;;;;3.12;41.21;96639.13;5141203;27;20543;-76
2022/03/20 02:27:17;;;;;;;14.60;8.47;;;;;;;3.11;41.23;96642.50;5107817;28;20193;-79
2022/03/20 02:29:45;;;;;;;14.03;8.33;;;;;;;3.11;41.30;96643.34;5106784;28;20280;-77
2022/03/20 02:32:16;;;;;;;13.53;7.63;;;;;;;3.07;41.33;96633.38;5107929;28;20275;-76
2022/03/20 02:34:45;;;;;;;11.73;7.07;;;;;;;3.06;41.46;96637.56;5108004;28;20181;-75
2022/03/20 02:37:13;;;;;;;12.73;7.37;;;;;;;3.06;41.53;96639.28;5107616;28;20177;-76
2022/03/20 02:39:42;;;;;;;12.20;7.80;;;;;;;3.03;41.75;96632.63;5107874;28;20636;-75
2022/03/20 02:42:09;;;;;;;10.43;7.87;;;;;;;3.06;41.66;96634.22;5107274;28;20216;-78
2022/03/20 02:44:54;;;;;;;10.97;8.33;;;;;;;2.93;41.84;96619.41;5107513;28;20272;-78
2022/03/20 02:47:24;;;;;;;11.40;8.33;;;;;;;2.98;41.70;96622.66;5107952;28;20246;-76
2022/03/20 02:49:56;;;;;;;11.10;8.83;;;;;;;2.98;42.08;96631.94;5107325;28;20197;-80
2022/03/20 02:52:28;;;;;;;12.80;8.07;;;;;;;3.00;42.12;96636.06;5107299;28;20189;-78
2022/03/20 02:55:00;;;;;;;14.75;8.20;;;;;;;3.00;42.29;96636.06;5105860;28;20531;-76
2022/03/20 02:57:27;;;;;;;17.93;9.50;;;;;;;2.98;42.05;96631.94;5107280;28;20247;-74
2022/03/20 02:59:53;;;;;;;13.03;8.60;;;;;;;2.96;42.07;96638.72;5107212;28;20193;-77
2022/03/20 03:02:21;;;;;;;11.30;8.03;;;;;;;2.92;42.20;96627.03;5107633;28;20209;-77
2022/03/20 03:04:47;;;;;;;11.37;8.27;;;;;;;2.94;42.51;96640.47;5107129;28;20644;-77
2022/03/20 03:07:14;;;;;;;11.80;8.50;;;;;;;2.87;42.52;96621.28;5106769;28;20228;-75
2022/03/20 03:12:29;;;;;;;13.50;8.27;;;;;;;2.88;42.28;96644.00;5107139;28;20291;-75
2022/03/20 03:17:40;;;;;;;15.00;8.53;;;;;;;2.85;42.33;96633.13;5107351;28;20239;-78
2022/03/20 03:20:08;;;;;;;13.70;7.90;;;;;;;2.84;42.50;96634.84;5105416;28;20652;-74
2022/03/20 03:22:35;;;;;;;13.87;8.53;;;;;;;2.83;42.59;96639.94;5108403;28;20221;-77
2022/03/20 03:25:05;;;;;;;14.60;9.03;;;;;;;2.82;42.65;96639.13;5108534;28;20627;-74
2022/03/20 03:27:33;;;;;;;13.23;8.60;;;;;;;2.79;42.62;96634.13;5107446;28;20204;-74
2022/03/20 03:30:00;;;;;;;13.00;9.10;;;;;;;2.80;42.99;96640.84;5106834;28;20200;-76
2022/03/20 03:32:27;;;;;;;13.63;9.57;;;;;;;2.76;42.94;96637.59;5107734;28;20212;-74
2022/03/20 03:37:38;;;;;;;13.67;9.27;;;;;;;2.76;42.77;96642.66;5093215;28;20239;-77
2022/03/20 03:40:07;;;;;;;18.73;9.60;;;;;;;2.67;43.06;96635.28;5093010;28;20182;-75
2022/03/20 03:42:37;;;;;;;14.60;9.67;;;;;;;2.74;42.89;96643.53;5092807;28;20221;-75
2022/03/20 03:45:08;;;;;;;14.23;9.57;;;;;;;2.71;43.03;96644.44;5092942;28;20623;-74
2022/03/20 03:47:35;;;;;;;12.13;8.77;;;;;;;2.72;43.07;96652.84;5092747;28;20185;-74
2022/03/20 03:50:02;;;;;;;15.07;10.30;;;;;;;2.71;43.19;96649.50;5092114;28;20221;-75
2022/03/20 03:52:29;;;;;;;19.83;9.40;;;;;;;2.45;43.01;96619.91;5093082;28;20216;-75
2022/03/20 03:54:56;;;;;;;14.20;9.67;;;;;;;2.65;43.42;96652.22;5093118;28;20205;-74
2022/03/20 03:57:23;;;;;;;14.80;9.27;;;;;;;2.66;43.10;96650.50;5092631;28;20549;-74
2022/03/20 03:59:51;;;;;;;13.10;9.00;;;;;;;2.64;43.33;96657.31;5092330;28;20190;-74
2022/03/20 04:02:18;;;;;;;13.87;8.93;;;;;;;2.63;43.15;96653.94;5092464;28;20186;-74
2022/03/20 04:04:47;;;;;;;15.37;9.23;;;;;;;2.51;43.13;96637.44;5092651;28;20185;-74
2022/03/20 04:07:18;;;;;;;14.87;8.97;;;;;;;2.56;43.07;96644.06;5092510;28;20185;-76
2022/03/20 04:09:46;;;;;;;14.57;8.93;;;;;;;2.58;43.50;96652.41;5091636;28;20215;-76
2022/03/20 04:12:14;;;;;;;15.63;9.40;;;;;;;2.55;43.33;96645.75;5092124;28;20243;-75
2022/03/20 04:14:41;;;;;;;14.50;9.87;;;;;;;2.55;43.49;96647.44;5078425;28;20213;-76
2022/03/20 04:17:09;;;;;;;15.53;9.10;;;;;;;2.53;43.66;96647.47;5069812;28;20194;-75
2022/03/20 04:19:36;;;;;;;12.73;8.90;;;;;;;2.50;43.66;96645.03;5076962;28;20189;-77
2022/03/20 04:22:04;;;;;;;16.37;9.43;;;;;;;2.51;43.69;96641.66;5089623;28;20186;-78
2022/03/20 04:24:31;;;;;;;15.10;9.20;;;;;;;2.50;43.78;96642.50;5089580;28;20229;-78
2022/03/20 04:26:58;;;;;;;25.63;10.07;;;;;;;2.47;43.81;96645.13;5088936;28;20182;-77
2022/03/20 04:29:27;;;;;;;17.33;9.80;;;;;;;2.39;43.83;96637.75;5089549;28;20250;-76
2022/03/20 04:31:55;;;;;;;17.20;10.13;;;;;;;2.46;44.06;96649.34;5089599;28;20190;-76
2022/03/20 04:34:26;;;;;;;15.57;9.30;;;;;;;2.48;43.83;96649.31;5089244;28;20259;-76
2022/03/20 04:36:53;;;;;;;13.73;9.53;;;;;;;2.49;43.79;96643.38;5089569;28;20196;-76
2022/03/20 04:39:20;;;;;;;13.80;8.90;;;;;;;2.49;43.98;96646.72;5089431;28;20267;-77
2022/03/20 04:41:47;;;;;;;18.53;9.90;;;;;;;2.50;44.14;96655.13;5088798;28;20656;-77
2022/03/20 04:44:14;;;;;;;12.27;8.63;;;;;;;2.42;44.18;96644.44;5089130;28;20228;-77
2022/03/20 04:46:41;;;;;;;14.93;8.93;;;;;;;2.53;44.14;96664.34;5087879;28;20579;-80
2022/03/20 05:00:18;;;;;;;11.03;8.17;;;;;;;2.78;43.66;96660.28;5044475;28;20245;-77
2022/03/20 05:02:45;;;;;;;13.17;8.93;;;;;;;2.85;43.77;96653.34;5048469;28;20277;-78
2022/03/20 05:05:12;;;;;;;12.00;8.63;;;;;;;2.95;43.67;96658.13;5048369;28;20205;-76
2022/03/20 05:07:40;;;;;;;15.17;8.60;;;;;;;3.13;43.49;96658.47;5049107;28;20190;-76
2022/03/20 05:15:37;;;;;;;12.37;8.53;;;;;;;3.90;42.62;96659.50;5048651;28;20597;-78
2022/03/20 05:18:04;;;;;;;10.40;7.97;;;;;;;4.30;42.20;96661.56;5048170;28;20697;-80
2022/03/20 05:20:31;;;;;;;11.43;7.43;;;;;;;4.80;42.39;96668.34;5048741;28;20270;-80
2022/03/20 05:22:59;;;;;;;11.03;7.83;;;;;;;5.35;41.95;96672.22;5048273;28;20270;-77
2022/03/20 05:25:28;;;;;;;13.87;8.23;;;;;;;5.91;41.73;96668.41;5047766;28;20198;-77
2022/03/20 05:27:55;;;;;;;11.50;6.80;;;;;;;6.59;41.67;96677.50;5047204;28;20915;-77
2022/03/20 05:30:23;;;;;;;13.27;7.80;;;;;;;7.26;41.03;96686.50;5090611;28;20205;-79
2022/03/20 05:32:50;;;;;;;10.60;7.53;;;;;;;7.92;40.44;96674.13;5090448;28;20250;-77
2022/03/20 05:35:18;;;;;;;11.57;7.73;;;;;;;8.62;39.96;96669.88;5070370;28;20197;-79
2022/03/20 05:37:45;;;;;;;10.77;7.20;;;;;;;9.31;39.37;96674.00;5072219;28;20194;-78
2022/03/20 05:40:14;;;;;;;9.33;6.93;;;;;;;10.01;38.77;96682.94;5077862;28;20194;-76
2022/03/20 05:42:41;;;;;;;11.40;7.20;;;;;;;10.69;37.80;96679.16;5090805;28;20189;-78
2022/03/20 05:45:11;;;;;;;11.43;8.27;;;;;;;11.38;36.89;96683.53;5091154;28;20185;-80
2022/03/20 05:47:38;;;;;;;10.70;7.23;;;;;;;12.06;36.35;96685.34;5090295;28;20205;-78
2022/03/20 05:50:07;;;;;;;12.97;7.70;;;;;;;12.75;35.33;96686.81;5090901;28;20185;-77
2022/03/20 05:52:35;;;;;;;10.93;7.93;;;;;;;13.42;34.79;96698.59;5089182;28;20189;-78
2022/03/20 05:55:02;;;;;;;11.03;7.63;;;;;;;14.08;33.95;96699.16;5090555;28;20189;-79
2022/03/20 06:00:22;;;;;;;12.73;9.03;;;;;;;15.45;32.34;96704.38;5089440;28;20192;-77
2022/03/20 06:02:49;;;;;;;15.50;9.40;;;;;;;16.01;31.88;96695.75;5090001;28;20196;-78
2022/03/20 06:05:16;;;;;;;11.27;8.60;;;;;;;16.64;31.12;96701.03;5090578;28;20568;-79
2022/03/20 06:07:45;;;;;;;13.87;9.27;;;;;;;17.18;30.41;96687.88;5089376;28;20186;-78
2022/03/20 06:10:12;;;;;;;13.40;9.27;;;;;;;17.75;29.70;96704.59;5089928;28;20231;-77
2022/03/20 06:12:41;;;;;;;10.03;8.70;;;;;;;18.31;29.20;96698.00;5083793;28;20201;-76
2022/03/20 06:15:09;;;;;;;13.67;9.43;;;;;;;18.83;28.53;96698.53;5089186;28;20197;-77
2022/03/20 06:17:41;;;;;;;10.77;5.17;;;;;;;19.48;37.97;96712.41;5087620;28;20193;-76
2022/03/20 06:20:09;;;;;;;5.83;4.30;;;;;;;20.25;40.33;96703.38;5089861;28;20255;-75
2022/03/20 06:22:36;;;;;;;7.53;6.17;;;;;;;20.94;37.92;96691.44;5089729;28;20228;-81
2022/03/20 06:25:08;;;;;;;9.40;6.90;;;;;;;21.60;34.38;96710.84;5089217;28;20225;-75
2022/03/20 06:27:51;;;;;;;17.13;8.27;;;;;;;22.10;32.60;96714.41;5070216;28;20573;-75
2022/03/20 06:30:20;;;;;;;11.87;7.97;;;;;;;22.48;30.99;96713.03;5089503;28;20194;-79
2022/03/20 06:32:48;;;;;;;10.13;8.38;;;;;;;22.79;29.49;96705.38;5089326;28;20189;-81
2022/03/20 06:35:17;;;;;;;11.52;8.43;;;;;;;23.02;28.62;96697.72;5090033;28;20194;-82
2022/03/20 06:37:45;;;;;;;11.48;8.70;;;;;;;23.31;27.53;96718.03;5089960;28;20587;-78
2022/03/20 06:40:14;;;;;;;16.67;10.27;;;;;;;23.54;27.79;96716.34;5089689;28;20189;-81
2022/03/20 06:42:41;;;;;;;11.95;9.00;;;;;;;23.73;27.19;96707.31;5088643;28;20182;-77
2022/03/20 06:45:11;;;;;;;11.65;8.90;;;;;;;23.97;26.96;96716.03;5089664;28;20257;-83
2022/03/20 06:47:39;;;;;;;10.27;8.65;;;;;;;24.16;26.39;96720.81;5089180;28;20260;-72
2022/03/20 06:50:08;;;;;;;9.40;8.45;;;;;;;24.34;25.99;96717.09;5089289;28;20194;-79
2022/03/20 06:52:35;;;;;;;13.45;8.55;;;;;;;24.51;25.72;96716.03;5089386;28;20190;-86
2022/03/20 06:55:03;;;;;;;12.82;8.32;;;;;;;24.65;25.33;96706.59;5086418;28;20205;-83
2022/03/20 06:57:31;;;;;;;8.10;7.10;;;;;;;24.72;21.55;96691.81;5088533;28;20603;-85
2022/03/20 06:59:59;;;;;;;10.77;6.75;;;;;;;24.44;21.44;96715.94;5089407;28;20258;-84
2022/03/20 07:02:27;;;;;;;10.15;7.28;;;;;;;24.15;24.02;96713.16;5089066;28;20239;-82
2022/03/20 07:04:55;;;;;;;8.40;7.22;;;;;;;23.98;25.34;96726.31;5089141;28;20207;-82
2022/03/20 07:07:23;;;;;;;9.05;6.70;;;;;;;24.09;26.53;96711.22;5087387;28;20186;-79
2022/03/20 07:09:49;;;;;;;7.60;6.22;;;;;;;24.32;24.64;96721.72;5090170;28;20200;-79
2022/03/20 07:12:16;;;;;;;6.57;5.63;;;;;;;24.45;23.35;96714.94;5092224;28;20196;-78
2022/03/20 07:14:45;;;;;;;7.20;5.50;;;;;;;24.52;23.68;96725.50;5091935;28;20189;-79
2022/03/20 07:17:13;;;;;;;6.13;5.22;;;;;;;24.68;25.21;96722.75;5091242;28;20190;-78
2022/03/20 07:19:43;;;;;;;6.05;5.32;;;;;;;24.88;26.47;96722.28;5091273;28;20189;-78
2022/03/20 07:22:12;;;;;;;6.85;5.43;;;;;;;25.09;26.82;96724.25;5091851;28;20303;-80
2022/03/20 07:24:40;;;;;;;5.32;4.72;;;;;;;25.24;26.21;96718.03;5094949;28;20369;-84
2022/03/20 07:29:52;;;;;;;6.72;5.20;;;;;;;25.59;26.40;96725.34;5091117;28;20196;-80
2022/03/20 07:32:19;;;;;;;8.85;4.45;;;;;;;25.73;26.84;96717.50;5093634;28;20224;-82
2022/03/20 07:34:47;;;;;;;8.18;4.47;;;;;;;25.86;26.68;96721.28;5092099;28;20247;-83
2022/03/20 07:37:16;;;;;;;5.10;4.60;;;;;;;25.93;26.64;96715.13;5095926;28;20186;-80
2022/03/20 07:39:45;;;;;;;6.88;4.50;;;;;;;26.08;26.44;96714.25;5092548;28;20280;-80
2022/03/20 07:42:11;;;;;;;8.30;5.50;;;;;;;26.15;25.33;96721.22;5090168;28;20198;-79
2022/03/20 07:44:38;;;;;;;5.57;4.95;;;;;;;26.16;23.86;96717.59;5090279;28;20229;-80
2022/03/20 07:47:08;;;;;;;6.35;5.10;;;;;;;26.13;21.67;96706.69;5091214;28;20193;-80
2022/03/20 07:49:36;;;;;;;5.10;4.63;;;;;;;26.16;20.51;96712.34;5090830;28;20611;-75
2022/03/20 07:52:05;;;;;;;8.95;5.35;;;;;;;26.13;20.53;96714.53;5090830;28;20607;-78
2022/03/20 07:54:32;;;;;;;7.38;5.68;;;;;;;26.07;20.66;96708.22;5090277;28;20587;-78
2022/03/20 07:57:00;;;;;;;6.05;5.25;;;;;;;26.00;21.01;96705.53;5090783;28;20186;-80
2022/03/20 07:59:27;;;;;;;5.53;4.75;;;;;;;25.93;21.03;96702.00;5095424;28;21191;-82
2022/03/20 08:01:54;;;;;;;6.18;4.95;;;;;;;25.91;21.25;96700.59;5102130;28;20197;-76
2022/03/20 08:04:22;;;;;;;8.32;5.15;;;;;;;25.92;21.20;96692.53;5105486;28;20656;-80
2022/03/20 08:06:50;;;;;;;6.32;4.85;;;;;;;25.97;20.72;96690.16;5090732;28;20194;-82
2022/03/20 08:09:19;;;;;;;6.10;4.78;;;;;;;25.91;20.47;96682.22;5090714;28;20197;-83
2022/03/20 08:11:46;;;;;;;8.00;4.85;;;;;;;26.03;20.49;96699.91;5090427;28;20672;-81
2022/03/20 08:14:13;;;;;;;13.15;5.53;;;;;;;26.03;20.13;96696.47;5089770;28;20194;-81
2022/03/20 08:16:41;;;;;;;7.25;5.10;;;;;;;25.77;20.09;96652.41;5090707;28;20194;-81
2022/03/20 08:19:09;;;;;;;7.18;5.38;;;;;;;25.98;19.88;96697.03;5093028;28;20616;-85
2022/03/20 08:21:38;;;;;;;6.80;5.05;;;;;;;25.85;19.45;96664.59;5092529;28;20193;-87
2022/03/20 08:24:05;;;;;;;7.95;4.85;;;;;;;25.87;19.55;96680.97;5093399;28;20306;-84
2022/03/20 08:26:34;;;;;;;5.75;5.15;;;;;;;25.53;19.44;96643.84;5094094;28;20670;-84
2022/03/20 08:29:02;;;;;;;7.60;6.07;;;;;;;25.72;19.31;96676.53;5094710;28;20572;-83
2022/03/20 08:31:30;;;;;;;6.72;4.93;;;;;;;25.65;19.12;96667.78;5099761;28;20188;-86
2022/03/20 08:33:58;;;;;;;6.95;5.53;;;;;;;25.57;19.29;96661.84;5093469;28;20200;-85
2022/03/20 08:36:25;;;;;;;9.63;6.95;;;;;;;25.38;19.34;96656.16;5092024;28;20641;-85
2022/03/20 08:38:52;;;;;;;7.32;6.43;;;;;;;25.31;19.35;96665.75;5092384;28;20185;-85
2022/03/20 08:41:19;;;;;;;7.43;6.05;;;;;;;25.16;18.88;96663.09;5090733;28;20664;-86
2022/03/20 08:43:48;;;;;;;8.32;6.05;;;;;;;24.86;18.85;96640.50;5091800;28;20801;-85
2022/03/20 08:46:16;;;;;;;6.22;5.63;;;;;;;24.80;19.11;96668.19;5091511;28;20203;-86
2022/03/20 08:48:43;;;;;;;6.13;5.38;;;;;;;24.61;19.34;96653.00;5092736;28;20193;-85
2022/03/20 08:51:10;;;;;;;6.28;5.68;;;;;;;24.43;19.10;96659.34;5091924;28;20209;-85
2022/03/20 08:53:39;;;;;;;7.22;5.60;;;;;;;24.18;19.37;96657.88;5092243;28;20182;-85
2022/03/20 08:56:06;;;;;;;6.53;5.82;;;;;;;24.06;19.35;96656.66;5092167;28;20236;-84
2022/03/20 08:58:33;;;;;;;5.85;5.25;;;;;;;23.74;19.63;96642.78;5092367;28;20196;-86
2022/03/20 09:01:01;;;;;;;8.18;5.93;;;;;;;23.63;19.36;96643.16;5092184;28;20197;-85
2022/03/20 09:03:29;;;;;;;7.50;6.57;;;;;;;23.50;19.46;96646.31;5092387;28;20261;-87
2022/03/20 09:05:56;;;;;;;8.10;6.05;;;;;;;23.30;19.46;96640.69;5091644;28;20213;-87
2022/03/20 09:08:22;;;;;;;5.82;5.32;;;;;;;23.13;19.57;96639.91;5091065;28;20194;-84
2022/03/20 09:10:50;;;;;;;8.00;5.75;;;;;;;22.89;19.75;96632.16;5091780;28;20189;-84
2022/03/20 09:13:17;;;;;;;6.28;5.40;;;;;;;22.73;19.61;96638.19;5091449;28;20568;-86
2022/03/20 09:15:43;;;;;;;6.50;4.95;;;;;;;22.50;19.93;96644.09;5091794;28;20575;-85
2022/03/20 09:20:56;;;;;;;6.30;5.70;;;;;;;21.96;20.07;96627.25;5091890;28;20192;-87
2022/03/20 09:23:23;;;;;;;6.70;5.43;;;;;;;21.70;20.07;96629.97;5090835;28;20221;-86
2022/03/20 09:25:52;;;;;;;7.38;5.70;;;;;;;21.34;20.30;96608.56;5091406;28;20209;-85
2022/03/20 09:28:18;;;;;;;6.30;5.57;;;;;;;21.12;20.16;96610.72;5091066;28;20185;-86
2022/03/20 09:30:45;;;;;;;7.00;6.10;;;;;;;20.94;20.34;96613.41;5091395;28;20533;-86
2022/03/20 09:33:14;;;;;;;7.57;5.07;;;;;;;20.70;20.41;96606.25;5089261;28;20641;-87
2022/03/20 09:35:41;;;;;;;5.90;5.30;;;;;;;20.42;20.52;96597.78;5090990;28;20560;-87
2022/03/20 09:38:08;;;;;;;7.13;5.47;;;;;;;20.17;20.31;96601.16;5091279;28;20580;-86
2022/03/20 09:40:37;;;;;;;6.00;5.40;;;;;;;19.94;20.36;96609.38;5094457;28;20178;-87
2022/03/20 09:43:04;;;;;;;7.87;5.90;;;;;;;19.65;20.38;96607.03;5092160;28;20587;-88
2022/03/20 09:45:31;;;;;;;7.67;5.23;;;;;;;19.39;20.37;96606.88;5092007;28;20226;-85
2022/03/20 09:47:58;;;;;;;8.27;5.13;;;;;;;19.08;20.62;96590.75;5091562;28;20243;-87
2022/03/20 09:50:26;;;;;;;5.00;4.47;;;;;;;18.89;20.64;96611.59;5091717;28;20197;-87
2022/03/20 09:52:53;;;;;;;7.90;5.00;;;;;;;18.47;20.87;96580.84;5093544;28;20198;-84
2022/03/20 09:55:20;;;;;;;7.27;4.60;;;;;;;18.32;20.87;96593.44;5092641;28;20206;-85
2022/03/20 09:57:47;;;;;;;5.20;4.70;;;;;;;18.01;20.78;96582.44;5092045;28;20185;-86
2022/03/20 10:00:17;;;;;;;7.43;4.40;;;;;;;17.85;21.12;96595.09;5091259;28;20197;-87
2022/03/20 10:02:44;;;;;;;5.77;5.10;;;;;;;17.47;21.08;96561.25;5092580;28;20194;-87
2022/03/20 10:05:11;;;;;;;5.77;4.53;;;;;;;17.44;21.28;96583.97;5092323;28;20232;-86
2022/03/20 10:07:43;;;;;;;5.20;4.67;;;;;;;17.19;21.14;96568.00;5092498;28;20664;-86
2022/03/20 10:10:15;;;;;;;6.80;4.23;;;;;;;17.05;21.40;96578.69;5092411;28;20733;-85
2022/03/20 10:12:44;;;;;;;5.70;4.67;;;;;;;16.89;21.55;96574.03;5092409;28;20193;-88
2022/03/20 10:15:27;;;;;;;8.13;4.27;;;;;;;16.67;21.58;96569.00;5092054;28;20716;-86
2022/03/20 10:18:06;;;;;;;6.70;4.90;;;;;;;16.43;21.70;96549.44;5092013;28;20679;-86
2022/03/20 10:20:36;;;;;;;8.23;5.33;;;;;;;16.41;21.80;96566.03;5092725;28;20202;-87
2022/03/20 10:23:04;;;;;;;5.10;4.60;;;;;;;16.27;21.74;96557.63;5091058;28;20587;-84
2022/03/20 10:25:31;;;;;;;6.27;4.83;;;;;;;16.13;21.81;96557.97;5090992;28;20306;-87
2022/03/20 10:28:00;;;;;;;5.10;4.60;;;;;;;16.02;21.98;96558.84;5090745;28;20668;-86
2022/03/20 10:30:27;;;;;;;4.93;4.43;;;;;;;15.93;22.14;96559.59;5091067;28;20192;-87
2022/03/20 10:32:54;;;;;;;6.10;4.77;;;;;;;15.77;22.24;96559.19;5092089;28;20204;-87
2022/03/20 10:35:21;;;;;;;7.13;4.50;;;;;;;15.68;22.22;96562.53;5092516;28;20225;-88
2022/03/20 10:37:53;;;;;;;5.90;4.83;;;;;;;15.16;22.28;96494.44;5092400;28;20198;-87
2022/03/20 10:40:23;;;;;;;6.20;4.53;;;;;;;15.35;22.34;96553.91;5093546;28;20186;-88
2022/03/20 10:43:08;;;;;;;6.10;4.90;;;;;;;15.29;22.52;96544.09;5092725;28;20196;-87
2022/03/20 10:45:51;;;;;;;7.83;4.67;;;;;;;15.19;22.46;96543.16;5095489;28;20220;-87
2022/03/20 10:48:28;;;;;;;6.17;4.13;;;;;;;15.10;22.52;96542.13;5095177;28;20295;-87
2022/03/20 10:50:56;;;;;;;6.30;4.47;;;;;;;15.03;22.62;96541.78;5097609;28;20223;-87
2022/03/20 10:53:23;;;;;;;6.37;4.20;;;;;;;14.92;22.84;96541.78;5098351;28;20197;-85
2022/03/20 10:55:56;;;;;;;6.07;4.30;;;;;;;14.86;22.91;96550.00;5096754;28;20194;-84
2022/03/20 10:58:24;;;;;;;6.87;4.47;;;;;;;14.77;22.96;96548.97;5097408;28;20217;-85
2022/03/20 11:00:52;;;;;;;5.87;4.47;;;;;;;14.56;22.97;96522.28;5097364;28;20226;-85
2022/03/20 11:03:22;;;;;;;5.77;4.27;;;;;;;14.50;22.96;96518.38;5100732;28;20189;-86
2022/03/20 11:05:49;;;;;;;6.17;4.13;;;;;;;14.47;23.23;96539.22;5097197;28;20247;-86
2022/03/20 11:08:19;;;;;;;5.00;4.50;;;;;;;14.30;23.08;96507.03;5096459;28;20608;-85
2022/03/20 11:10:49;;;;;;;7.60;4.73;;;;;;;14.36;23.22;96536.63;5096353;28;20189;-85
2022/03/20 11:13:19;;;;;;;6.47;4.03;;;;;;;14.21;23.33;96505.13;5097878;28;20673;-85
2022/03/20 11:15:46;;;;;;;6.67;4.37;;;;;;;14.24;23.30;96515.19;5095411;28;20194;-85
2022/03/20 11:18:15;;;;;;;6.27;4.20;;;;;;;13.97;23.28;96476.91;5096202;28;20190;-87
2022/03/20 11:20:46;;;;;;;5.07;4.20;;;;;;;14.03;23.48;96502.19;5100811;28;20193;-86
2022/03/20 11:23:15;;;;;;;5.00;3.93;;;;;;;14.06;23.50;96508.84;5096448;28;20225;-85
2022/03/20 11:25:46;;;;;;;5.07;4.43;;;;;;;13.93;23.46;96495.25;5096078;28;20225;-86
2022/03/20 11:28:18;;;;;;;6.47;4.57;;;;;;;13.96;23.48;96506.16;5096727;28;20189;-84
2022/03/20 11:30:46;;;;;;;5.30;4.80;;;;;;;13.90;23.67;96495.47;5097452;28;20200;-86
2022/03/20 11:33:16;;;;;;;4.77;4.13;;;;;;;13.87;23.70;96493.97;5095032;28;20194;-86
2022/03/20 11:35:43;;;;;;;4.57;4.10;;;;;;;13.64;23.63;96461.41;5094280;28;20194;-85
2022/03/20 11:38:19;;;;;;;4.23;3.67;;;;;;;13.60;23.70;96447.97;5094978;28;20204;-86
2022/03/20 11:41:05;;;;;;;5.90;4.50;;;;;;;13.80;23.86;96495.34;5094317;28;20189;-85
2022/03/20 11:43:34;;;;;;;5.50;4.43;;;;;;;13.76;23.64;96491.34;5093821;28;20699;-85
2022/03/20 11:46:21;;;;;;;7.60;4.87;;;;;;;13.44;23.72;96453.41;5094275;28;20317;-85
2022/03/20 11:49:30;;;;;;;5.50;4.33;;;;;;;13.64;23.97;96490.50;5094067;28;20193;-86
2022/03/20 11:52:03;;;;;;;8.50;4.60;;;;;;;13.57;24.05;96479.03;5031290;28;20211;-85
2022/03/20 11:54:50;;;;;;;4.83;4.00;;;;;;;13.42;23.95;96468.09;5031439;28;20196;-85
2022/03/20 11:57:45;;;;;;;7.30;4.47;;;;;;;13.34;24.03;96462.69;5031949;28;20679;-86
2022/03/20 12:00:16;;;;;;;6.87;4.73;;;;;;;13.34;24.07;96472.16;4992342;28;20280;-85
2022/03/20 12:03:28;;;;;;;4.87;4.43;;;;;;;13.37;24.07;96479.66;4991968;28;20197;-84
2022/03/20 12:06:22;;;;;;;5.63;4.43;;;;;;;13.34;24.07;96467.84;4915033;29;20722;-84
2022/03/20 12:09:03;;;;;;;6.20;4.63;;;;;;;13.32;24.18;96468.91;4916698;29;20211;-86
2022/03/20 12:11:42;;;;;;;4.77;4.27;;;;;;;13.30;24.09;96463.88;4916758;29;20199;-84
2022/03/20 12:14:20;;;;;;;4.60;3.97;;;;;;;13.29;24.25;96463.03;4918740;29;20234;-85
2022/03/20 12:16:58;;;;;;;6.83;3.73;;;;;;;13.25;24.16;96460.78;4918696;29;20203;-85
2022/03/20 12:19:37;;;;;;;5.93;3.97;;;;;;;13.10;24.28;96431.88;4917375;29;20204;-85
2022/03/20 12:22:06;;;;;;;5.00;4.20;;;;;;;12.83;24.30;96397.91;4915281;29;20200;-86
2022/03/20 12:25:02;;;;;;;4.03;3.50;;;;;;;13.12;24.41;96447.97;4917043;29;20207;-84
2022/03/20 12:27:48;;;;;;;6.97;4.00;;;;;;;13.09;24.29;96457.69;4929754;29;20729;-86
2022/03/20 12:30:34;;;;;;;7.40;4.33;;;;;;;13.04;24.28;96453.69;4936719;29;20249;-86